Time;durP1;ratioP1;P1;durP2;ratioP2;P2;SDS_P1;SDS_P2;PMS_P1;PMS_P2;Temp;Humidity;BMP_temperature;BMP_pressure;BME280_temperature;BME280_humidity;BME280_pressure;Samples;Min_cycle;Max_cycle;Signal;HPM_P1;HPM_P2
2023/01/07 00:00:29;;;;;;;5.35;2.67;;;;;;;6.06;95.30;99770.19;10454385;28;20119;-84
2023/01/07 00:05:29;;;;;;;4.80;2.80;;;;;;;6.05;95.48;99743.97;10453127;28;20045;-84
2023/01/07 00:10:30;;;;;;;4.32;3.10;;;;;;;6.04;95.48;99744.94;10454945;28;20037;-83
2023/01/07 00:15:31;;;;;;;5.93;2.90;;;;;;;6.28;95.20;99789.97;10454562;28;20053;-83
2023/01/07 00:20:31;;;;;;;4.50;3.05;;;;;;;5.63;94.53;99674.28;10453991;28;20131;-84
2023/01/07 00:25:32;;;;;;;4.63;2.90;;;;;;;5.99;94.65;99740.16;10452245;28;20076;-84
2023/01/07 00:30:33;;;;;;;3.45;2.70;;;;;;;6.22;94.44;99795.03;10452502;28;20041;-84
2023/01/07 00:35:37;;;;;;;5.55;3.10;;;;;;;6.09;94.57;99766.41;10453840;28;20055;-83
2023/01/07 00:40:37;;;;;;;4.00;2.90;;;;;;;5.58;94.15;99689.69;10453885;28;20410;-82
2023/01/07 00:45:38;;;;;;;7.25;3.40;;;;;;;5.82;94.73;99725.97;10453167;28;20048;-83
2023/01/07 00:50:39;;;;;;;4.78;3.28;;;;;;;6.10;94.56;99786.53;10452265;28;20123;-83
2023/01/07 00:55:40;;;;;;;4.35;2.90;;;;;;;5.42;93.98;99679.84;10452844;28;20248;-84
2023/01/07 01:00:41;;;;;;;4.00;2.83;;;;;;;5.82;93.94;99760.22;10454190;28;20048;-82
2023/01/07 01:05:42;;;;;;;4.43;2.85;;;;;;;6.14;93.34;99803.72;10454451;28;20052;-83
2023/01/07 01:10:43;;;;;;;4.10;2.38;;;;;;;6.14;92.95;99793.16;10452354;28;20040;-83
2023/01/07 01:15:46;;;;;;;3.53;1.90;;;;;;;6.07;92.77;99794.72;10452120;28;20106;-82
2023/01/07 01:20:46;;;;;;;3.38;1.50;;;;;;;5.97;92.20;99781.66;10452177;28;20033;-83
2023/01/07 01:25:47;;;;;;;3.88;1.67;;;;;;;5.98;92.29;99793.84;10453670;28;20051;-83
2023/01/07 01:30:54;;;;;;;3.88;1.48;;;;;;;5.92;91.08;99790.00;10450981;28;20037;-82
2023/01/07 01:35:55;;;;;;;2.45;1.40;;;;;;;5.71;90.60;99761.31;10457626;28;20056;-83
2023/01/07 01:40:56;;;;;;;2.55;1.50;;;;;;;5.97;90.94;99801.91;10460617;28;20044;-82
2023/01/07 01:46:03;;;;;;;1.55;0.98;;;;;;;5.21;91.02;99692.50;10458467;28;20037;-82
2023/01/07 01:51:08;;;;;;;1.50;0.80;;;;;;;5.28;91.28;99782.25;10459338;28;20072;-82
2023/01/07 01:56:11;;;;;;;2.65;0.45;;;;;;;5.04;90.31;99907.34;10460463;28;20049;-79
2023/01/07 02:01:12;;;;;;;0.50;0.30;;;;;;;3.43;92.02;99738.00;10459710;28;20033;-79
2023/01/07 02:06:23;;;;;;;0.30;0.10;;;;;;;4.20;90.24;99922.97;10459418;28;20045;-80
2023/01/07 02:11:50;;;;;;;0.30;0.20;;;;;;;4.01;87.22;99944.78;10458988;28;20045;-82
2023/01/07 02:17:18;;;;;;;0.25;0.10;;;;;;;3.70;87.76;99952.72;10459022;28;20061;-81
2023/01/07 02:23:04;;;;;;;0.57;0.20;;;;;;;3.48;88.78;99952.94;10457719;28;20100;-81
2023/01/07 02:28:22;;;;;;;0.80;0.20;;;;;;;3.29;88.12;99979.91;10457633;28;20182;-80
2023/01/07 02:33:34;;;;;;;0.40;0.10;;;;;;;2.89;85.57;100004.25;10458131;28;20128;-80
2023/01/07 02:38:56;;;;;;;0.17;0.10;;;;;;;2.12;86.04;99926.63;10457616;28;20037;-78
2023/01/07 02:44:06;;;;;;;0.40;0.20;;;;;;;2.44;87.04;100035.91;10457289;28;20048;-80
2023/01/07 02:49:10;;;;;;;0.95;0.30;;;;;;;1.79;86.54;100027.06;10457595;28;20041;-80
2023/01/07 02:54:19;;;;;;;1.02;0.40;;;;;;;1.51;87.29;100086.78;10456591;28;20127;-83
2023/01/07 02:59:43;;;;;;;1.67;0.63;;;;;;;1.30;86.15;100104.09;10457852;28;20037;-82
2023/01/07 03:04:59;;;;;;;0.98;0.50;;;;;;;0.96;86.12;100142.38;10456431;28;20053;-79
2023/01/07 03:10:29;;;;;;;1.38;0.60;;;;;;;0.77;86.04;100172.47;10457941;28;20135;-81
2023/01/07 03:15:37;;;;;;;1.80;0.60;;;;;;;0.60;85.72;100198.94;10457484;28;20537;-80
2023/01/07 03:20:42;;;;;;;1.70;0.70;;;;;;;0.19;85.69;100171.34;10454742;28;20511;-82
2023/01/07 03:25:46;;;;;;;2.53;1.20;;;;;;;-0.22;85.64;100150.66;10456280;28;20050;-82
2023/01/07 03:30:50;;;;;;;3.55;1.58;;;;;;;-0.57;84.72;100196.44;10456178;28;20037;-87
2023/01/07 03:35:55;;;;;;;3.93;2.00;;;;;;;-0.55;85.18;100246.72;10455470;28;20041;-85
2023/01/07 03:40:56;;;;;;;3.70;1.88;;;;;;;-1.14;84.75;100207.03;10454064;28;20865;-77
2023/01/07 03:45:58;;;;;;;4.43;2.47;;;;;;;-0.84;84.99;100303.34;10451432;28;20040;-83
2023/01/07 03:50:59;;;;;;;6.95;2.33;;;;;;;-1.03;85.43;100324.53;10439972;28;20072;-81
2023/01/07 03:56:00;;;;;;;3.63;2.30;;;;;;;-0.66;85.76;100399.66;10428107;28;20128;-82
2023/01/07 04:01:00;;;;;;;4.70;2.33;;;;;;;-1.31;84.92;100290.69;10415787;28;20048;-82
2023/01/07 04:06:01;;;;;;;4.22;2.50;;;;;;;-1.22;85.96;100337.03;10454430;28;20076;-82
2023/01/07 04:11:02;;;;;;;3.55;2.20;;;;;;;-0.93;86.20;100419.53;10455179;28;20136;-84
2023/01/07 04:16:03;;;;;;;5.18;3.10;;;;;;;-1.01;85.94;100411.34;10452863;28;20056;-83
2023/01/07 04:21:06;;;;;;;6.07;2.95;;;;;;;-1.80;85.59;100348.28;10447585;28;20525;-84
2023/01/07 04:26:06;;;;;;;4.70;2.70;;;;;;;-2.08;85.28;100326.44;10438036;28;20053;-84
2023/01/07 04:31:07;;;;;;;5.10;3.10;;;;;;;-1.85;85.15;100418.88;10413110;28;20034;-83
2023/01/07 04:36:09;;;;;;;5.85;3.10;;;;;;;-2.42;83.99;100367.38;10413700;28;20046;-85
2023/01/07 04:41:09;;;;;;;6.07;2.92;;;;;;;-2.25;84.50;100480.09;10413093;28;20037;-82
2023/01/07 04:46:10;;;;;;;6.20;3.10;;;;;;;-2.95;84.71;100365.91;10412415;28;20049;-83
2023/01/07 04:51:11;;;;;;;5.80;2.90;;;;;;;-2.86;84.07;100414.81;10411851;28;20120;-83
2023/01/07 04:56:12;;;;;;;5.95;3.22;;;;;;;-2.39;84.65;100504.25;10411772;28;20048;-84
2023/01/07 05:01:12;;;;;;;7.88;3.08;;;;;;;-2.57;84.54;100469.66;10412433;28;20397;-83
2023/01/07 05:06:13;;;;;;;6.97;3.85;;;;;;;-2.41;84.79;100493.09;10411714;28;20049;-83
2023/01/07 05:11:20;;;;;;;5.88;3.40;;;;;;;-2.35;85.04;100517.00;10420373;28;20044;-82
2023/01/07 05:16:21;;;;;;;6.53;3.70;;;;;;;-2.35;85.39;100517.00;10421188;28;20064;-81
2023/01/07 05:21:21;;;;;;;6.80;3.17;;;;;;;-2.42;84.75;100491.38;10420346;28;20060;-81
2023/01/07 05:26:22;;;;;;;6.57;3.17;;;;;;;-2.28;84.52;100556.56;10456755;28;20045;-81
2023/01/07 05:31:23;;;;;;;5.22;2.70;;;;;;;-2.31;84.80;100600.94;10460696;28;20049;-81
2023/01/07 05:36:24;;;;;;;3.88;2.33;;;;;;;-2.69;84.07;100561.28;10460766;28;20029;-83
2023/01/07 05:41:24;;;;;;;5.65;3.05;;;;;;;-2.76;84.18;100559.00;10461259;28;20041;-82
2023/01/07 05:46:25;;;;;;;8.15;3.22;;;;;;;-3.14;83.75;100532.34;10460546;28;20037;-82
2023/01/07 05:51:26;;;;;;;5.53;2.83;;;;;;;-3.12;83.24;100572.09;10460952;28;20045;-81
2023/01/07 05:56:27;;;;;;;6.32;2.80;;;;;;;-3.13;83.08;100639.75;10460158;28;20040;-82
2023/01/07 06:01:27;;;;;;;6.88;3.88;;;;;;;-3.83;83.63;100520.06;10449762;28;20042;-80
2023/01/07 06:06:28;;;;;;;5.80;3.35;;;;;;;-3.34;84.02;100650.22;10437701;28;20515;-88
2023/01/07 06:11:29;;;;;;;6.72;3.03;;;;;;;-3.84;84.20;100570.31;10456362;28;20041;-83
2023/01/07 06:16:30;;;;;;;7.85;3.60;;;;;;;-3.96;84.30;100556.16;10434247;28;20194;-83
2023/01/07 06:21:31;;;;;;;7.53;3.70;;;;;;;-4.14;83.88;100518.91;10437438;28;20054;-88
2023/01/07 06:26:31;;;;;;;5.20;2.58;;;;;;;-3.19;84.04;100651.25;10458984;28;20051;-88
2023/01/07 06:31:32;;;;;;;5.95;3.13;;;;;;;-3.21;83.71;100624.50;10430541;28;20044;-78
2023/01/07 06:36:34;;;;;;;5.20;2.63;;;;;;;-3.00;83.05;100643.41;10458802;28;20072;-87
2023/01/07 06:41:35;;;;;;;8.88;2.97;;;;;;;-2.61;82.57;100653.63;10462044;28;20068;-90
2023/01/07 06:46:35;;;;;;;7.50;3.50;;;;;;;-2.26;81.69;100665.78;10479714;28;20109;-89
2023/01/07 06:51:36;;;;;;;8.40;3.30;;;;;;;-2.92;81.01;100572.88;10464137;28;20045;-92
2023/01/07 06:56:37;;;;;;;5.43;3.10;;;;;;;-2.56;80.46;100661.19;10461154;28;20041;-91
2023/01/07 07:01:38;;;;;;;7.53;2.78;;;;;;;-2.78;80.76;100682.22;10459859;28;20037;-86
2023/01/07 07:06:38;;;;;;;6.80;2.92;;;;;;;-3.25;80.61;100657.59;10460043;28;20517;-92
2023/01/07 07:11:39;;;;;;;6.43;2.72;;;;;;;-3.09;80.16;100701.03;10456595;28;20073;-90
2023/01/07 07:16:40;;;;;;;5.70;2.95;;;;;;;-3.44;80.50;100635.97;10454697;28;20045;-90
2023/01/07 07:21:41;;;;;;;7.00;3.08;;;;;;;-2.95;80.26;100693.44;10461231;28;20052;-82
2023/01/07 07:26:42;;;;;;;5.53;2.90;;;;;;;-3.45;80.38;100616.94;10425049;28;20061;-80
2023/01/07 07:31:43;;;;;;;6.88;3.53;;;;;;;-2.62;80.28;100748.16;10441572;28;20037;-78
2023/01/07 07:36:43;;;;;;;6.75;2.65;;;;;;;-2.60;80.29;100745.50;10454722;28;20563;-76
2023/01/07 07:41:44;;;;;;;6.00;3.40;;;;;;;-3.72;79.85;100608.69;10447428;28;20067;-80
2023/01/07 07:46:45;;;;;;;5.80;3.22;;;;;;;-2.81;80.30;100779.41;10453063;28;20045;-77
2023/01/07 07:51:48;;;;;;;6.65;3.13;;;;;;;-3.48;80.27;100644.81;10434517;28;20041;-82
2023/01/07 07:56:49;;;;;;;7.28;4.13;;;;;;;-3.36;79.84;100692.78;10433983;28;20128;-78
2023/01/07 08:01:50;;;;;;;7.30;3.47;;;;;;;-2.64;80.13;100819.38;10455278;28;20424;-80
2023/01/07 08:06:51;;;;;;;5.00;3.20;;;;;;;-2.63;79.95;100819.31;10456391;28;20048;-83
2023/01/07 08:11:52;;;;;;;8.95;3.30;;;;;;;-2.81;79.48;100795.03;10454145;28;20041;-82
2023/01/07 08:16:53;;;;;;;5.88;2.72;;;;;;;-2.57;79.33;100800.81;10453930;28;20060;-79
2023/01/07 08:21:54;;;;;;;6.85;2.90;;;;;;;-2.49;78.48;100787.44;10445223;28;20045;-90
2023/01/07 08:26:55;;;;;;;6.93;3.00;;;;;;;-2.53;77.68;100747.72;10453257;28;20048;-87
2023/01/07 08:31:56;;;;;;;6.03;3.10;;;;;;;-2.56;78.58;100736.63;10458969;28;20033;-89
2023/01/07 08:36:57;;;;;;;6.55;3.08;;;;;;;-2.44;77.67;100741.22;10458402;28;20536;-91
2023/01/07 08:41:57;;;;;;;6.65;3.42;;;;;;;-2.37;78.44;100763.41;10459194;28;20037;-91
2023/01/07 08:46:58;;;;;;;7.18;3.97;;;;;;;-3.03;77.38;100634.00;10439880;28;20489;-87
2023/01/07 08:51:59;;;;;;;6.63;3.20;;;;;;;-2.39;77.76;100726.25;10423749;28;20041;-90
2023/01/07 08:57:00;;;;;;;5.75;3.30;;;;;;;-2.93;77.45;100656.94;10422219;28;20087;-86
2023/01/07 09:02:00;;;;;;;6.40;3.28;;;;;;;-2.66;77.08;100737.97;10425953;28;20045;-93
2023/01/07 09:07:01;;;;;;;7.32;3.30;;;;;;;-2.43;77.31;100784.53;10425121;28;20128;-92
2023/01/07 09:12:03;;;;;;;4.95;2.95;;;;;;;-2.54;76.70;100818.88;10424459;28;20072;-90
2023/01/07 09:17:04;;;;;;;6.47;3.00;;;;;;;-2.73;77.29;100805.03;10422330;28;20057;-84
2023/01/07 09:22:05;;;;;;;5.38;3.17;;;;;;;-2.63;77.12;100842.72;10424626;28;20045;-85
2023/01/07 09:27:06;;;;;;;6.28;3.10;;;;;;;-2.81;75.71;100826.22;10422957;28;20045;-92
2023/01/07 09:32:06;;;;;;;5.90;3.00;;;;;;;-2.53;75.37;100861.34;10424074;28;20493;-87
2023/01/07 09:37:07;;;;;;;10.85;5.05;;;;;;;-2.51;75.06;100833.50;10437658;28;20117;-89
2023/01/07 09:42:28;;;;;;;7.70;3.90;;;;;;;-2.23;73.91;100829.56;10448959;28;20037;-86
2023/01/07 09:47:32;;;;;;;6.22;3.20;;;;;;;-2.39;71.84;100744.47;10447049;28;20116;-88
2023/01/07 09:52:42;;;;;;;7.70;3.58;;;;;;;-2.86;72.23;100725.94;10454328;28;20381;-89
2023/01/07 09:57:43;;;;;;;7.72;3.85;;;;;;;-3.00;73.12;100752.56;10450139;28;20079;-88
2023/01/07 10:03:17;;;;;;;21.48;8.35;;;;;;;-2.75;73.48;100812.09;10421769;28;20092;-83
2023/01/07 10:08:24;;;;;;;6.78;3.55;;;;;;;-2.82;72.86;100847.91;10420592;28;20041;-87
2023/01/07 10:13:51;;;;;;;9.60;2.88;;;;;;;-2.88;72.42;100837.78;10435088;28;20064;-85
2023/01/07 10:18:58;;;;;;;6.03;3.08;;;;;;;-3.56;72.57;100746.47;10452704;28;20400;-87
2023/01/07 10:24:03;;;;;;;6.50;3.10;;;;;;;-3.56;72.46;100776.75;10419223;28;20045;-86
2023/01/07 10:29:15;;;;;;;9.52;4.30;;;;;;;-3.34;72.97;100845.06;10449668;28;20060;-85
2023/01/07 10:34:31;;;;;;;11.38;4.93;;;;;;;-3.85;72.76;100809.19;10437068;28;20115;-86
2023/01/07 10:39:46;;;;;;;7.88;3.30;;;;;;;-3.43;71.50;100910.41;10454163;28;20047;-84
2023/01/07 10:45:21;;;;;;;6.25;3.38;;;;;;;-4.15;70.86;100833.75;10459268;28;20403;-82
2023/01/07 10:50:46;;;;;;;6.55;3.08;;;;;;;-3.57;71.10;100941.28;10454840;28;20057;-87
2023/01/07 10:55:57;;;;;;;7.20;3.28;;;;;;;-3.73;71.07;100917.72;10469687;28;20139;-85
2023/01/07 11:00:58;;;;;;;7.68;3.22;;;;;;;-3.96;71.33;100895.28;10459448;28;20064;-88
2023/01/07 11:06:07;;;;;;;8.27;2.78;;;;;;;-4.47;70.74;100777.97;10424887;28;20052;-83
2023/01/07 11:11:15;;;;;;;8.25;3.53;;;;;;;-3.68;70.37;100915.75;10418011;28;20044;-84
2023/01/07 11:16:46;;;;;;;5.90;3.33;;;;;;;-3.65;70.34;100925.16;10441695;28;20060;-86
2023/01/07 11:21:48;;;;;;;6.00;2.95;;;;;;;-3.94;69.74;100906.44;10415266;28;20053;-84
2023/01/07 11:26:49;;;;;;;6.15;3.20;;;;;;;-4.04;69.65;100929.31;10416873;28;20095;-82
2023/01/07 11:31:49;;;;;;;7.15;3.53;;;;;;;-3.98;69.00;100968.03;10416101;28;20056;-84
2023/01/07 11:36:50;;;;;;;6.72;3.30;;;;;;;-4.10;68.93;100962.44;10414296;28;20076;-81
2023/01/07 11:41:56;;;;;;;5.82;2.58;;;;;;;-4.09;68.41;100990.09;10418202;28;20045;-84
2023/01/07 11:46:56;;;;;;;7.20;3.35;;;;;;;-4.20;68.48;100986.16;10445975;28;20451;-91
2023/01/07 11:51:58;;;;;;;8.38;3.75;;;;;;;-4.55;68.09;100933.00;10458315;28;20033;-88
2023/01/07 11:57:21;;;;;;;8.45;3.42;;;;;;;-4.27;68.52;100989.06;10475253;28;20032;-86
2023/01/07 12:02:25;;;;;;;7.30;3.38;;;;;;;-4.35;67.60;100986.72;10473623;28;20037;-84
2023/01/07 12:07:26;;;;;;;7.07;3.30;;;;;;;-4.42;67.17;100998.25;10471636;28;20040;-83
2023/01/07 12:12:33;;;;;;;6.78;3.15;;;;;;;-4.57;66.86;100993.63;10477008;28;20036;-83
2023/01/07 12:17:35;;;;;;;6.10;2.88;;;;;;;-4.49;66.81;101036.50;10489162;28;20061;-82
2023/01/07 12:23:01;;;;;;;7.88;3.33;;;;;;;-4.60;67.26;101044.69;10474081;28;20523;-83
2023/01/07 12:28:24;;;;;;;9.23;3.53;;;;;;;-4.60;67.20;101073.19;10470776;28;20091;-82
2023/01/07 12:33:33;;;;;;;6.78;3.15;;;;;;;-5.19;67.81;100985.41;10473637;28;20041;-83
2023/01/07 12:38:49;;;;;;;6.28;3.40;;;;;;;-4.66;67.76;101095.91;10469411;28;20115;-81
2023/01/07 12:44:22;;;;;;;8.13;3.22;;;;;;;-4.77;67.58;101103.19;10478266;28;20518;-81
2023/01/07 12:50:18;;;;;;;9.13;3.85;;;;;;;-5.09;67.65;101092.97;10427554;28;20045;-80
2023/01/07 12:55:28;;;;;;;7.22;3.13;;;;;;;-5.07;67.04;101136.97;10399687;28;20409;-81
2023/01/07 13:00:35;;;;;;;7.32;3.10;;;;;;;-5.55;66.66;101097.03;10424455;28;20052;-78
2023/01/07 13:05:53;;;;;;;9.55;3.80;;;;;;;-6.56;65.98;100975.91;10412272;28;20045;-79
2023/01/07 13:11:02;;;;;;;11.73;4.13;;;;;;;-5.68;66.73;101157.84;10453021;28;20037;-79
2023/01/07 13:16:04;;;;;;;9.25;3.92;;;;;;;-5.80;66.71;101163.38;10432231;28;20059;-79
2023/01/07 13:21:06;;;;;;;8.50;4.15;;;;;;;-6.11;67.17;101140.97;10413192;28;20045;-80
2023/01/07 13:26:17;;;;;;;8.73;3.58;;;;;;;-6.03;67.05;101182.16;10411951;28;20078;-80
2023/01/07 13:31:46;;;;;;;6.78;3.53;;;;;;;-6.03;67.60;101184.75;10450071;28;20041;-81
2023/01/07 13:37:16;;;;;;;9.68;4.00;;;;;;;-6.28;68.28;101180.22;10461275;28;20118;-81
2023/01/07 13:42:38;;;;;;;9.15;3.20;;;;;;;-6.38;68.30;101190.84;10440508;28;20119;-80
2023/01/07 13:47:48;;;;;;;12.63;3.88;;;;;;;-7.04;67.98;101102.06;10428349;28;20049;-80
2023/01/07 13:52:58;;;;;;;8.68;3.45;;;;;;;-7.15;68.56;101117.81;10433790;28;20059;-80
2023/01/07 13:57:59;;;;;;;8.88;4.32;;;;;;;-6.78;68.26;101233.19;10460373;28;20033;-79
2023/01/07 14:03:00;;;;;;;9.48;3.38;;;;;;;-7.06;68.00;101222.63;10460439;28;20049;-79
2023/01/07 14:08:03;;;;;;;7.18;3.28;;;;;;;-7.31;67.43;101214.56;10440853;28;20052;-80
2023/01/07 14:13:32;;;;;;;6.28;2.80;;;;;;;-7.08;66.95;101263.13;10418942;28;20057;-79
2023/01/07 14:19:02;;;;;;;6.93;2.60;;;;;;;-7.57;67.37;101213.38;10418687;28;20043;-80
2023/01/07 14:24:17;;;;;;;7.45;3.53;;;;;;;-7.56;67.41;101246.06;10418051;28;20037;-79
2023/01/07 14:29:21;;;;;;;6.28;3.60;;;;;;;-7.34;67.85;101305.84;10419920;28;20123;-79
2023/01/07 14:34:25;;;;;;;9.20;3.08;;;;;;;-7.31;68.42;101318.69;10426783;28;20169;-81
2023/01/07 14:39:45;;;;;;;8.15;3.50;;;;;;;-7.61;68.47;101273.69;10417141;28;20037;-80
2023/01/07 14:44:47;;;;;;;9.40;4.10;;;;;;;-7.53;68.93;101335.47;10417105;28;20045;-80
2023/01/07 14:50:08;;;;;;;6.85;3.15;;;;;;;-7.50;69.26;101344.00;10417780;28;20048;-80
2023/01/07 14:55:25;;;;;;;6.15;2.88;;;;;;;-7.93;69.06;101305.22;10431926;28;20032;-80
2023/01/07 15:00:35;;;;;;;7.65;3.30;;;;;;;-7.87;69.45;101352.38;10458674;28;20049;-78
2023/01/07 15:05:57;;;;;;;9.88;3.75;;;;;;;-7.98;70.15;101362.06;10457926;28;20142;-79
2023/01/07 15:16:21;;;;;;;11.25;5.43;;;;;;;-8.33;70.40;101334.25;10457952;28;20521;-78
2023/01/07 15:21:44;;;;;;;9.43;3.80;;;;;;;-8.14;70.58;101356.28;10457519;28;20090;-80
2023/01/07 15:27:09;;;;;;;10.55;3.85;;;;;;;-8.19;70.88;101390.75;10458178;28;20048;-80
2023/01/07 15:32:25;;;;;;;7.97;3.42;;;;;;;-8.26;70.82;101393.41;10456928;28;20127;-79
2023/01/07 15:37:26;;;;;;;7.55;4.00;;;;;;;-8.46;70.50;101372.28;10437721;28;20036;-80
2023/01/07 15:42:27;;;;;;;20.63;12.25;;;;;;;-8.54;70.74;101356.06;10418180;28;20120;-80
2023/01/07 15:47:37;;;;;;;16.02;7.80;;;;;;;-8.27;71.38;101421.78;10431342;28;20044;-79
2023/01/07 15:52:38;;;;;;;13.82;7.18;;;;;;;-8.46;70.96;101416.09;10455996;28;20158;-84
2023/01/07 15:57:39;;;;;;;13.07;4.20;;;;;;;-8.52;70.87;101427.31;10454953;28;20075;-81
2023/01/07 16:02:42;;;;;;;7.85;3.67;;;;;;;-8.74;70.73;101398.41;10464539;28;20041;-81
2023/01/07 16:07:58;;;;;;;10.23;3.50;;;;;;;-8.50;70.74;101461.63;10474188;28;20072;-81
2023/01/07 16:13:03;;;;;;;6.07;3.15;;;;;;;-8.63;71.26;101472.97;10472080;28;20098;-80
2023/01/07 16:18:24;;;;;;;10.13;3.83;;;;;;;-8.68;70.91;101467.00;10471872;28;20041;-82
2023/01/07 16:23:28;;;;;;;10.30;5.07;;;;;;;-8.88;71.21;101464.69;10422978;28;20041;-83
2023/01/07 16:28:40;;;;;;;15.13;5.90;;;;;;;-8.61;71.31;101501.31;10415117;28;20131;-83
2023/01/07 16:33:42;;;;;;;15.05;7.18;;;;;;;-9.22;71.05;101407.56;10415319;28;20042;-82
2023/01/07 16:38:45;;;;;;;19.83;8.30;;;;;;;-8.69;71.66;101503.13;10428019;28;20045;-80
2023/01/07 16:43:47;;;;;;;7.73;3.67;;;;;;;-8.64;71.99;101493.63;10483219;28;20041;-80
2023/01/07 16:49:08;;;;;;;8.43;4.22;;;;;;;-8.64;71.80;101498.78;10451630;28;20086;-81
2023/01/07 16:54:23;;;;;;;9.75;4.53;;;;;;;-9.21;71.84;101419.59;10443337;28;20041;-81
2023/01/07 16:59:29;;;;;;;9.38;3.95;;;;;;;-9.27;71.60;101429.91;10454962;28;20041;-81
2023/01/07 17:04:31;;;;;;;8.88;4.20;;;;;;;-8.87;72.02;101512.75;10449437;28;20045;-79
2023/01/07 17:09:37;;;;;;;9.05;4.22;;;;;;;-8.81;72.02;101530.69;10440574;28;20041;-80
2023/01/07 17:14:44;;;;;;;11.82;4.38;;;;;;;-8.86;71.86;101545.34;10445503;28;20512;-80
2023/01/07 17:19:51;;;;;;;10.10;3.95;;;;;;;-8.98;71.75;101540.31;10462614;28;20091;-79
2023/01/07 17:24:52;;;;;;;10.50;3.50;;;;;;;-9.11;71.64;101533.59;10462718;28;20037;-80
2023/01/07 17:29:55;;;;;;;13.45;3.03;;;;;;;-9.24;71.53;101544.00;10462763;28;20041;-80
2023/01/07 17:35:04;;;;;;;8.25;3.90;;;;;;;-9.57;71.31;101497.94;10451990;28;20051;-79
2023/01/07 17:40:06;;;;;;;10.02;3.78;;;;;;;-9.15;71.28;101565.34;10461342;28;20075;-80
2023/01/07 17:45:12;;;;;;;8.88;3.35;;;;;;;-9.56;71.40;101502.25;10460350;28;20107;-79
2023/01/07 17:50:14;;;;;;;9.70;3.45;;;;;;;-9.56;71.66;101508.22;10460460;28;20403;-79
2023/01/07 17:55:19;;;;;;;7.75;3.47;;;;;;;-9.35;71.80;101558.66;10446336;28;20045;-78
2023/01/07 18:00:22;;;;;;;8.88;3.70;;;;;;;-9.57;71.66;101541.66;10435485;28;20077;-80
2023/01/07 18:05:25;;;;;;;7.95;3.17;;;;;;;-9.49;71.43;101568.19;10450559;28;20041;-81
2023/01/07 18:12:28;;;;;;;5.75;2.60;;;;;;;-9.83;71.51;101532.44;10455925;28;20041;-78
2023/01/07 18:15:49;;;;;;;8.95;3.03;;;;;;;-10.62;71.31;101411.31;10449516;28;20095;-80
2023/01/07 18:20:50;;;;;;;8.27;3.50;;;;;;;-9.72;71.26;101579.50;10446450;28;20067;-78
2023/01/07 18:25:50;;;;;;;6.00;2.90;;;;;;;-9.94;71.64;101575.34;10424760;28;20484;-79
2023/01/07 18:30:51;;;;;;;9.35;3.85;;;;;;;-9.86;71.76;101583.88;10433187;28;20499;-78
2023/01/07 18:35:52;;;;;;;7.03;2.97;;;;;;;-9.99;71.98;101566.78;10450271;28;20037;-80
2023/01/07 18:40:54;;;;;;;7.90;2.75;;;;;;;-9.95;71.63;101573.63;10447376;28;20041;-79
2023/01/07 18:45:55;;;;;;;8.30;2.85;;;;;;;-10.13;71.48;101560.00;10458002;28;20059;-78
2023/01/07 18:50:56;;;;;;;40.03;16.50;;;;;;;-10.84;71.53;101450.75;10458067;28;20048;-80
2023/01/07 18:56:00;;;;;;;15.65;5.70;;;;;;;-10.48;71.82;101538.78;10468647;28;20086;-80
2023/01/07 19:01:04;;;;;;;8.23;3.45;;;;;;;-10.64;71.63;101549.09;10476825;28;20421;-79
2023/01/07 19:06:08;;;;;;;6.45;2.42;;;;;;;-10.49;72.08;101602.16;10472543;28;20052;-78
2023/01/07 19:11:11;;;;;;;7.55;2.85;;;;;;;-10.65;72.26;101595.31;10460552;28;20041;-78
2023/01/07 19:16:12;;;;;;;7.47;2.70;;;;;;;-10.37;72.14;101634.66;10459588;28;20142;-78
2023/01/07 19:21:13;;;;;;;10.95;3.05;;;;;;;-10.47;71.93;101628.69;10444406;28;20132;-78
2023/01/07 19:26:14;;;;;;;8.70;2.53;;;;;;;-11.36;71.38;101472.28;10470248;28;20037;-78
2023/01/07 19:31:15;;;;;;;14.45;3.10;;;;;;;-10.90;71.88;101568.84;10444340;28;20049;-79
2023/01/07 19:36:15;;;;;;;6.30;2.53;;;;;;;-10.83;71.55;101586.81;10456027;28;20037;-79
2023/01/07 19:41:18;;;;;;;5.05;2.38;;;;;;;-10.55;71.58;101652.66;10456488;28;20041;-79
2023/01/07 19:46:19;;;;;;;8.52;2.60;;;;;;;-10.62;71.37;101662.06;10454515;28;20119;-77
2023/01/07 19:51:20;;;;;;;7.95;2.47;;;;;;;-11.04;71.14;101595.41;10418168;28;20627;-79
2023/01/07 19:56:21;;;;;;;8.88;2.50;;;;;;;-10.66;71.34;101644.97;10414586;28;20392;-79
2023/01/07 20:01:27;;;;;;;6.75;2.42;;;;;;;-10.93;71.55;101631.28;10413842;28;20042;-76
2023/01/07 20:06:29;;;;;;;5.38;2.92;;;;;;;-10.99;71.82;101656.97;10457516;28;20044;-82
2023/01/07 20:11:29;;;;;;;6.68;2.67;;;;;;;-11.80;71.76;101538.94;10473146;28;20373;-82
2023/01/07 20:16:30;;;;;;;10.68;2.83;;;;;;;-11.09;71.70;101656.09;10474357;28;20045;-82
2023/01/07 20:21:32;;;;;;;6.50;2.83;;;;;;;-11.06;71.86;101656.13;10464755;28;20040;-80
2023/01/07 20:26:34;;;;;;;7.95;3.08;;;;;;;-11.08;71.79;101680.06;10465348;28;20067;-80
2023/01/07 20:31:34;;;;;;;8.25;3.13;;;;;;;-11.67;71.88;101586.78;10471252;28;20537;-81
2023/01/07 20:36:35;;;;;;;6.50;2.78;;;;;;;-11.23;71.83;101680.88;10473204;28;20102;-80
2023/01/07 20:41:37;;;;;;;7.30;3.05;;;;;;;-11.31;71.65;101683.44;10469358;28;20420;-79
2023/01/07 20:46:39;;;;;;;7.10;3.35;;;;;;;-11.54;71.83;101649.22;10451506;28;20420;-80
2023/01/07 20:51:40;;;;;;;7.88;2.50;;;;;;;-11.38;72.11;101696.25;10453397;28;20404;-79
2023/01/07 20:56:41;;;;;;;7.93;2.85;;;;;;;-11.58;71.95;101663.72;10453970;28;20051;-79
2023/01/07 21:01:42;;;;;;;4.40;2.40;;;;;;;-11.58;71.82;101684.22;10447486;28;20128;-79
2023/01/07 21:06:43;;;;;;;6.47;2.50;;;;;;;-12.26;71.65;101577.28;10420291;28;20054;-79
2023/01/07 21:11:46;;;;;;;7.57;3.55;;;;;;;-11.77;71.80;101669.63;10412659;28;20038;-79
2023/01/07 21:16:47;;;;;;;8.43;2.88;;;;;;;-11.85;72.21;101658.53;10410643;28;20057;-79
2023/01/07 21:21:49;;;;;;;6.03;2.47;;;;;;;-12.35;72.16;101588.31;10411888;28;20041;-78
2023/01/07 21:26:50;;;;;;;4.80;2.35;;;;;;;-12.03;72.24;101655.03;10412821;28;20508;-78
2023/01/07 21:31:52;;;;;;;6.80;2.38;;;;;;;-12.06;72.72;101649.91;10410730;28;20037;-78
2023/01/07 21:36:52;;;;;;;15.27;5.93;;;;;;;-11.98;72.67;101661.06;10410397;28;20041;-79
2023/01/07 21:41:55;;;;;;;9.73;3.10;;;;;;;-12.31;73.06;101607.13;10412031;28;20042;-78
2023/01/07 21:46:55;;;;;;;7.72;3.30;;;;;;;-12.48;73.25;101577.16;10411841;28;20045;-78
2023/01/07 21:51:56;;;;;;;6.10;2.70;;;;;;;-12.04;73.51;101637.97;10415477;28;20103;-79
2023/01/07 21:56:57;;;;;;;8.60;2.72;;;;;;;-12.65;72.90;101537.84;10419623;28;20045;-78
2023/01/07 22:01:58;;;;;;;6.53;2.83;;;;;;;-12.07;73.19;101644.78;10429871;28;20393;-79
2023/01/07 22:06:59;;;;;;;7.28;2.42;;;;;;;-12.73;73.13;101548.03;10417359;28;20386;-79
2023/01/07 22:12:00;;;;;;;10.02;2.60;;;;;;;-12.09;73.62;101682.34;10419357;28;20394;-79
2023/01/07 22:17:01;;;;;;;7.60;2.05;;;;;;;-12.60;73.49;101584.78;10418561;28;20146;-79
2023/01/07 22:22:01;;;;;;;5.53;2.35;;;;;;;-11.96;73.51;101677.28;10417971;28;20045;-79
2023/01/07 22:27:02;;;;;;;7.60;2.17;;;;;;;-12.42;73.24;101586.56;10417189;28;20132;-79
2023/01/07 22:32:03;;;;;;;8.65;2.53;;;;;;;-12.02;73.24;101682.38;10417901;28;20413;-78
2023/01/07 22:37:07;;;;;;;6.57;2.70;;;;;;;-12.10;73.51;101683.19;10417871;28;20048;-79
2023/01/07 22:42:13;;;;;;;7.18;2.55;;;;;;;-12.22;73.63;101660.94;10425691;28;20049;-78
2023/01/07 22:47:18;;;;;;;6.63;2.75;;;;;;;-12.84;73.59;101566.72;10457755;28;20114;-78
2023/01/07 22:52:19;;;;;;;5.70;2.42;;;;;;;-12.50;73.83;101634.31;10457428;28;20033;-79
2023/01/07 22:57:20;;;;;;;9.77;2.47;;;;;;;-12.66;74.23;101606.06;10458033;28;20040;-78
2023/01/07 23:02:21;;;;;;;7.32;2.50;;;;;;;-12.40;74.27;101665.97;10457839;28;20109;-79
2023/01/07 23:07:21;;;;;;;6.10;2.20;;;;;;;-12.77;74.29;101619.63;10457288;28;20076;-78
2023/01/07 23:12:22;;;;;;;6.20;3.00;;;;;;;-12.83;74.64;101632.38;10457346;28;20037;-79
2023/01/07 23:17:23;;;;;;;5.18;2.22;;;;;;;-13.06;74.71;101611.78;10457623;28;20083;-79
2023/01/07 23:22:24;;;;;;;5.93;2.63;;;;;;;-12.90;75.04;101642.56;10455676;28;20109;-79
2023/01/07 23:27:25;;;;;;;7.72;2.60;;;;;;;-13.47;75.51;101518.56;10456922;28;20041;-80